createdAt,value
2023-04-21T00:00:41.673Z,31.00
2023-04-21T00:05:44.573Z,28.60
2023-04-21T00:10:47.679Z,27.60
2023-04-21T00:15:52.048Z,31.60
2023-04-21T00:20:55.173Z,26.80
2023-04-21T00:25:58.084Z,31.80
2023-04-21T00:31:02.490Z,29.40
2023-04-21T00:36:06.102Z,31.00
2023-04-21T00:41:08.845Z,28.80
2023-04-21T00:46:15.461Z,24.00
2023-04-21T00:51:18.473Z,29.60
2023-04-21T00:56:21.618Z,27.40
2023-04-21T01:01:25.907Z,28.80
2023-04-21T01:06:29.337Z,30.00
2023-04-21T01:11:32.999Z,28.60
2023-04-21T01:16:38.385Z,29.80
2023-04-21T01:21:42.952Z,31.40
2023-04-21T01:26:49.424Z,28.40
2023-04-21T01:31:52.217Z,29.40
2023-04-21T01:36:56.478Z,29.80
2023-04-21T01:41:59.361Z,25.80
2023-04-21T01:47:02.135Z,28.20
2023-04-21T01:52:06.506Z,30.00
2023-04-21T01:57:09.412Z,28.40
2023-04-21T02:02:12.525Z,26.20
2023-04-21T02:07:16.744Z,29.20
2023-04-21T02:12:19.935Z,25.40
2023-04-21T02:17:22.749Z,26.80
2023-04-21T02:22:26.902Z,27.60
2023-04-21T02:27:31.138Z,26.20
2023-04-21T02:32:35.894Z,28.00
2023-04-21T02:37:41.930Z,26.80
2023-04-21T02:42:44.714Z,24.80
2023-04-21T02:47:47.570Z,23.40
2023-04-21T02:52:51.834Z,23.40
2023-04-21T02:57:54.619Z,27.80
2023-04-21T03:02:59.298Z,26.20
2023-04-21T03:08:03.986Z,22.40
2023-04-21T03:13:06.720Z,26.60
2023-04-21T03:18:09.482Z,26.00
2023-04-21T03:23:13.615Z,25.60
2023-04-21T03:28:16.917Z,26.80
2023-04-21T03:33:19.668Z,25.00
2023-04-21T03:38:23.912Z,21.40
2023-04-21T03:43:26.758Z,27.80
2023-04-21T03:48:29.772Z,25.60
2023-04-21T03:53:33.922Z,22.20
2023-04-21T03:58:36.954Z,22.40
2023-04-21T04:03:40.014Z,26.00
2023-04-21T04:08:44.248Z,22.00
2023-04-21T04:13:46.999Z,24.80
2023-04-21T04:18:50.997Z,24.80
2023-04-21T04:23:55.293Z,25.40
2023-04-21T04:28:58.177Z,19.00
2023-04-21T04:34:01.357Z,23.60
2023-04-21T04:39:06.360Z,24.00
2023-04-21T04:44:11.239Z,25.00
2023-04-21T04:49:14.101Z,21.20
2023-04-21T04:54:18.632Z,24.20
2023-04-21T04:59:21.728Z,22.60
2023-04-21T05:04:25.009Z,19.60
2023-04-21T05:09:29.441Z,23.20
2023-04-21T05:14:32.405Z,20.00
2023-04-21T05:19:37.191Z,24.20
2023-04-21T05:24:42.388Z,21.80
2023-04-21T05:29:45.257Z,23.40
2023-04-21T05:34:48.113Z,21.20
2023-04-21T05:39:52.294Z,21.60
2023-04-21T05:44:55.381Z,21.00
2023-04-21T05:49:58.205Z,25.80
2023-04-21T05:55:02.750Z,21.60
2023-04-21T06:00:07.418Z,22.60
2023-04-21T06:05:10.827Z,21.20
2023-04-21T06:10:16.243Z,19.20
2023-04-21T06:15:19.075Z,21.00
2023-04-21T06:20:21.944Z,24.00
2023-04-21T06:25:26.275Z,21.60
2023-04-21T06:30:29.174Z,23.20
2023-04-21T06:35:32.063Z,21.00
2023-04-21T06:40:36.465Z,20.60
2023-04-21T06:45:39.390Z,17.80
2023-04-21T06:50:44.413Z,21.00
2023-04-21T06:55:48.758Z,22.80
2023-04-21T07:00:51.577Z,25.20
2023-04-21T07:05:54.699Z,24.00
2023-04-21T07:10:59.030Z,25.00
2023-04-21T07:16:02.369Z,22.80
2023-04-21T07:21:05.277Z,28.00
2023-04-21T07:26:09.460Z,28.60
2023-04-21T07:31:12.213Z,24.60
2023-04-21T07:36:15.498Z,25.20
2023-04-21T07:41:19.642Z,24.60
2023-04-21T07:46:24.246Z,24.00
2023-04-21T07:51:27.786Z,28.00
2023-04-21T07:56:32.567Z,22.40
2023-04-21T08:01:35.510Z,23.80
2023-04-21T08:06:38.752Z,25.80
2023-04-21T08:11:43.295Z,28.00
2023-04-21T08:16:46.466Z,27.80
2023-04-21T08:21:49.509Z,26.60
2023-04-21T08:26:53.669Z,27.20
2023-04-21T08:31:56.688Z,24.00
2023-04-21T08:36:59.921Z,27.80
2023-04-21T08:42:04.227Z,25.20
2023-04-21T08:47:07.218Z,24.60
2023-04-21T08:52:10.072Z,22.60
2023-04-21T08:57:16.147Z,26.00
2023-04-21T09:02:20.207Z,24.60
2023-04-21T09:07:32.056Z,23.20
2023-04-21T09:12:36.309Z,22.60
2023-04-21T09:17:39.242Z,18.40
2023-04-21T09:22:42.095Z,23.40
2023-04-21T09:27:46.652Z,20.20
2023-04-21T09:32:50.126Z,24.80
2023-04-21T09:37:53.149Z,21.20
2023-04-21T09:43:00.803Z,21.20
2023-04-21T09:48:04.827Z,20.80
2023-04-21T09:53:07.753Z,23.80
2023-04-21T09:58:11.984Z,22.00
2023-04-21T10:03:14.896Z,18.60
2023-04-21T10:08:17.842Z,22.00
2023-04-21T10:13:22.113Z,21.40
2023-04-21T10:18:25.189Z,22.00
2023-04-21T10:23:32.219Z,18.40
2023-04-21T10:28:43.191Z,18.60
2023-04-21T10:34:29.381Z,19.40
2023-04-21T10:39:35.735Z,18.60
2023-04-21T10:44:42.666Z,18.20
2023-04-21T10:49:45.484Z,21.60
2023-04-21T10:55:06.568Z,19.20
2023-04-21T11:00:12.389Z,18.20
2023-04-21T11:05:15.137Z,17.40
2023-04-21T11:10:17.977Z,19.40
2023-04-21T11:15:22.166Z,18.20
2023-04-21T11:20:24.938Z,19.40
2023-04-21T11:25:27.848Z,20.20
2023-04-21T11:30:34.510Z,16.20
2023-04-21T11:35:41.000Z,14.80
2023-04-21T11:40:48.052Z,15.20
2023-04-21T11:45:52.503Z,15.00
2023-04-21T11:50:55.474Z,18.20
2023-04-21T11:55:58.634Z,17.80
2023-04-21T12:01:10.244Z,19.40
2023-04-21T12:06:21.604Z,17.80
2023-04-21T12:11:24.822Z,16.00
2023-04-21T12:16:29.745Z,14.80
2023-04-21T12:21:32.611Z,14.00
2023-04-21T12:26:35.482Z,12.20
2023-04-21T12:31:39.669Z,16.80
2023-04-21T12:36:42.440Z,15.80
2023-04-21T12:41:45.329Z,15.40
2023-04-21T12:46:49.913Z,17.00
2023-04-21T12:51:52.809Z,16.60
2023-04-21T12:56:55.833Z,14.80
2023-04-21T13:02:00.055Z,15.80
2023-04-21T13:07:03.020Z,16.00
2023-04-21T13:12:05.924Z,16.60
2023-04-21T13:17:11.269Z,14.20
2023-04-21T13:22:14.493Z,16.00
2023-04-21T13:27:17.265Z,13.60
2023-04-21T13:32:22.647Z,15.00
2023-04-21T13:37:25.592Z,16.60
2023-04-21T13:42:28.655Z,13.80
2023-04-21T13:47:32.987Z,15.00
2023-04-21T13:52:36.565Z,16.20
2023-04-21T13:57:39.433Z,16.00
2023-04-21T14:02:44.007Z,15.20
2023-04-21T14:07:47.003Z,13.00
2023-04-21T14:12:49.841Z,12.20
2023-04-21T14:17:54.559Z,16.40
2023-04-21T14:22:57.498Z,14.00
2023-04-21T14:28:00.524Z,11.20
2023-04-21T14:33:05.130Z,11.20
2023-04-21T14:38:08.397Z,14.40
2023-04-21T14:43:11.980Z,13.20
2023-04-21T14:48:16.130Z,12.60
2023-04-21T14:53:19.072Z,12.80
2023-04-21T14:58:22.013Z,10.00
2023-04-21T15:03:26.458Z,10.00
2023-04-21T15:08:29.351Z,9.80
2023-04-21T15:13:32.300Z,13.80
2023-04-21T15:18:36.464Z,11.00
2023-04-21T15:23:39.286Z,10.60
2023-04-21T15:28:42.251Z,12.00
2023-04-21T15:33:46.345Z,12.00
2023-04-21T15:38:49.349Z,10.20
2023-04-21T15:43:52.129Z,13.20
2023-04-21T15:48:56.489Z,11.20
2023-04-21T15:53:59.367Z,12.20
2023-04-21T15:59:03.691Z,11.20
2023-04-21T16:04:08.095Z,13.00
2023-04-21T16:09:11.162Z,12.60
2023-04-21T16:14:16.422Z,12.00
2023-04-21T16:19:20.908Z,15.20
2023-04-21T16:24:23.768Z,13.20
2023-04-21T16:29:26.758Z,16.20
2023-04-21T16:34:30.975Z,12.60
2023-04-21T16:39:33.981Z,16.00
2023-04-21T16:44:36.986Z,17.00
2023-04-21T16:49:41.462Z,12.80
2023-04-21T16:54:44.259Z,14.40
2023-04-21T16:59:47.404Z,17.00
2023-04-21T17:04:51.788Z,14.20
2023-04-21T17:09:54.683Z,14.80
2023-04-21T17:14:57.712Z,14.80
2023-04-21T17:20:01.829Z,19.00
2023-04-21T17:25:04.824Z,16.20
2023-04-21T17:30:09.175Z,15.00
2023-04-21T17:35:13.368Z,15.80
2023-04-21T17:40:16.164Z,16.00
2023-04-21T17:45:19.193Z,17.20
2023-04-21T17:50:27.182Z,15.80
2023-04-21T17:55:31.030Z,17.20
2023-04-21T18:00:42.334Z,20.60
2023-04-21T18:05:47.451Z,19.60
2023-04-21T18:10:50.336Z,18.60
2023-04-21T18:15:53.121Z,17.00
2023-04-21T18:20:59.658Z,17.40
2023-04-21T18:26:02.431Z,17.60
2023-04-21T18:31:05.299Z,17.20
2023-04-21T18:36:09.945Z,15.60
2023-04-21T18:41:12.791Z,17.20
2023-04-21T18:46:16.648Z,16.00
2023-04-21T18:51:20.796Z,19.00
2023-04-21T18:56:23.617Z,19.80
2023-04-21T19:01:31.933Z,16.40
2023-04-21T19:06:40.885Z,17.00
2023-04-21T19:11:43.768Z,15.40
2023-04-21T19:16:48.623Z,17.00
2023-04-21T19:21:52.901Z,18.80
2023-04-21T19:26:55.813Z,20.20
2023-04-21T19:31:58.889Z,15.40
2023-04-21T19:37:03.292Z,17.60
2023-04-21T19:42:06.248Z,18.60
2023-04-21T19:47:09.344Z,16.60
2023-04-21T19:52:13.693Z,18.60
2023-04-21T19:57:17.436Z,16.40
2023-04-21T20:02:24.399Z,16.40
2023-04-21T20:07:28.728Z,16.80
2023-04-21T20:12:31.442Z,17.60
2023-04-21T20:17:34.353Z,16.80
2023-04-21T20:22:38.543Z,17.80
2023-04-21T20:27:41.516Z,17.20
2023-04-21T20:32:44.893Z,17.00
2023-04-21T20:37:50.305Z,16.00
2023-04-21T20:42:53.053Z,13.20
2023-04-21T20:47:55.843Z,15.60
2023-04-21T20:53:00.047Z,16.00
2023-04-21T20:58:02.848Z,15.40
2023-04-21T21:03:09.940Z,17.00
2023-04-21T21:08:15.240Z,16.00
2023-04-21T21:13:18.078Z,16.40
2023-04-21T21:18:20.832Z,14.20
2023-04-21T21:23:25.078Z,15.60
2023-04-21T21:28:28.051Z,16.00
2023-04-21T21:33:30.822Z,15.00
2023-04-21T21:38:35.034Z,13.40
2023-04-21T21:43:40.785Z,17.40
2023-04-21T21:48:43.568Z,15.00
2023-04-21T21:53:47.666Z,14.80
2023-04-21T21:58:50.514Z,17.00
2023-04-21T22:03:53.762Z,16.00
2023-04-21T22:08:58.329Z,14.20
2023-04-21T22:14:14.545Z,15.80
2023-04-21T22:19:26.040Z,17.00
2023-04-21T22:24:30.397Z,15.00
2023-04-21T22:29:33.336Z,16.00
2023-04-21T22:34:36.074Z,14.40
2023-04-21T22:39:40.455Z,16.20
2023-04-21T22:44:43.722Z,14.80
2023-04-21T22:49:46.485Z,14.80
2023-04-21T22:54:50.625Z,15.20
2023-04-21T22:59:53.454Z,16.00
2023-04-21T23:04:56.230Z,13.60
2023-04-21T23:10:00.390Z,15.00
2023-04-21T23:15:03.173Z,15.60
2023-04-21T23:20:06.978Z,15.20
2023-04-21T23:25:11.556Z,14.20
2023-04-21T23:30:14.569Z,12.80
2023-04-21T23:35:17.614Z,13.20
2023-04-21T23:40:21.709Z,14.60
2023-04-21T23:45:24.497Z,13.40
2023-04-21T23:50:27.287Z,15.00
2023-04-21T23:55:31.417Z,15.60
